sensor_id;sensor_type;location;lat;lon;timestamp;P1;durP1;ratioP1;P2;durP2;ratioP2
57023;SDS011;42916;54.346;18.562;2023-02-20T00:01:18;1.60;;;1.10;;
57023;SDS011;42916;54.346;18.562;2023-02-20T00:03:45;2.80;;;1.10;;
57023;SDS011;42916;54.346;18.562;2023-02-20T00:06:12;3.40;;;1.20;;
57023;SDS011;42916;54.346;18.562;2023-02-20T00:08:39;3.40;;;1.30;;
57023;SDS011;42916;54.346;18.562;2023-02-20T00:11:06;8.60;;;1.30;;
57023;SDS011;42916;54.346;18.562;2023-02-20T00:13:33;2.90;;;1.30;;
57023;SDS011;42916;54.346;18.562;2023-02-20T00:16:00;3.80;;;1.20;;
57023;SDS011;42916;54.346;18.562;2023-02-20T00:18:27;10.00;;;1.50;;
57023;SDS011;42916;54.346;18.562;2023-02-20T00:20:54;6.90;;;1.50;;
57023;SDS011;42916;54.346;18.562;2023-02-20T00:23:20;5.50;;;1.30;;
57023;SDS011;42916;54.346;18.562;2023-02-20T00:25:47;6.40;;;1.20;;
57023;SDS011;42916;54.346;18.562;2023-02-20T00:28:14;3.60;;;1.00;;
57023;SDS011;42916;54.346;18.562;2023-02-20T00:30:41;3.30;;;1.10;;
57023;SDS011;42916;54.346;18.562;2023-02-20T00:33:08;6.00;;;1.10;;
57023;SDS011;42916;54.346;18.562;2023-02-20T00:35:34;6.00;;;1.20;;
57023;SDS011;42916;54.346;18.562;2023-02-20T00:38:03;7.30;;;1.50;;
57023;SDS011;42916;54.346;18.562;2023-02-20T00:40:30;5.20;;;1.00;;
57023;SDS011;42916;54.346;18.562;2023-02-20T00:42:57;4.60;;;1.00;;
57023;SDS011;42916;54.346;18.562;2023-02-20T00:45:24;3.00;;;1.00;;
57023;SDS011;42916;54.346;18.562;2023-02-20T00:47:51;3.00;;;1.00;;
57023;SDS011;42916;54.346;18.562;2023-02-20T00:50:17;2.80;;;1.00;;
57023;SDS011;42916;54.346;18.562;2023-02-20T00:52:44;4.80;;;1.20;;
57023;SDS011;42916;54.346;18.562;2023-02-20T00:55:12;4.10;;;1.00;;
57023;SDS011;42916;54.346;18.562;2023-02-20T00:57:39;6.40;;;1.30;;
57023;SDS011;42916;54.346;18.562;2023-02-20T01:00:08;5.40;;;1.10;;
57023;SDS011;42916;54.346;18.562;2023-02-20T01:02:42;3.80;;;0.90;;
57023;SDS011;42916;54.346;18.562;2023-02-20T01:05:10;4.10;;;1.00;;
57023;SDS011;42916;54.346;18.562;2023-02-20T01:07:37;4.90;;;0.80;;
57023;SDS011;42916;54.346;18.562;2023-02-20T01:10:08;4.30;;;1.20;;
57023;SDS011;42916;54.346;18.562;2023-02-20T01:12:36;2.50;;;1.30;;
57023;SDS011;42916;54.346;18.562;2023-02-20T01:15:03;3.70;;;1.20;;
57023;SDS011;42916;54.346;18.562;2023-02-20T01:17:32;5.40;;;1.10;;
57023;SDS011;42916;54.346;18.562;2023-02-20T01:19:59;3.90;;;0.90;;
57023;SDS011;42916;54.346;18.562;2023-02-20T01:22:26;2.80;;;1.00;;
57023;SDS011;42916;54.346;18.562;2023-02-20T01:24:52;1.70;;;1.10;;
57023;SDS011;42916;54.346;18.562;2023-02-20T01:27:19;5.80;;;1.30;;
57023;SDS011;42916;54.346;18.562;2023-02-20T01:29:46;6.30;;;1.30;;
57023;SDS011;42916;54.346;18.562;2023-02-20T01:32:14;6.60;;;1.20;;
57023;SDS011;42916;54.346;18.562;2023-02-20T01:34:40;2.70;;;0.90;;
57023;SDS011;42916;54.346;18.562;2023-02-20T01:37:09;3.90;;;1.00;;
57023;SDS011;42916;54.346;18.562;2023-02-20T01:39:39;4.70;;;1.10;;
57023;SDS011;42916;54.346;18.562;2023-02-20T01:42:06;6.40;;;1.30;;
57023;SDS011;42916;54.346;18.562;2023-02-20T01:44:38;4.50;;;0.80;;
57023;SDS011;42916;54.346;18.562;2023-02-20T01:47:08;3.90;;;0.90;;
57023;SDS011;42916;54.346;18.562;2023-02-20T01:49:39;3.50;;;0.90;;
57023;SDS011;42916;54.346;18.562;2023-02-20T01:52:21;3.60;;;1.00;;
57023;SDS011;42916;54.346;18.562;2023-02-20T01:54:55;3.00;;;0.80;;
57023;SDS011;42916;54.346;18.562;2023-02-20T01:57:27;4.60;;;1.10;;
57023;SDS011;42916;54.346;18.562;2023-02-20T01:59:59;4.80;;;1.10;;
57023;SDS011;42916;54.346;18.562;2023-02-20T02:02:43;5.20;;;1.10;;
57023;SDS011;42916;54.346;18.562;2023-02-20T02:05:15;3.60;;;1.00;;
57023;SDS011;42916;54.346;18.562;2023-02-20T02:07:44;3.20;;;0.80;;
57023;SDS011;42916;54.346;18.562;2023-02-20T02:10:23;3.00;;;1.10;;
57023;SDS011;42916;54.346;18.562;2023-02-20T02:12:57;3.00;;;1.00;;
57023;SDS011;42916;54.346;18.562;2023-02-20T02:15:23;5.90;;;1.50;;
57023;SDS011;42916;54.346;18.562;2023-02-20T02:46:04;3.80;;;1.50;;
57023;SDS011;42916;54.346;18.562;2023-02-20T02:48:36;4.20;;;1.30;;
57023;SDS011;42916;54.346;18.562;2023-02-20T02:51:12;4.10;;;1.60;;
57023;SDS011;42916;54.346;18.562;2023-02-20T02:54:29;4.50;;;1.30;;
57023;SDS011;42916;54.346;18.562;2023-02-20T02:56:40;8.50;;;2.00;;
57023;SDS011;42916;54.346;18.562;2023-02-20T02:59:08;6.60;;;1.30;;
57023;SDS011;42916;54.346;18.562;2023-02-20T03:01:43;5.60;;;1.50;;
57023;SDS011;42916;54.346;18.562;2023-02-20T03:04:15;8.50;;;2.00;;
57023;SDS011;42916;54.346;18.562;2023-02-20T03:06:50;6.40;;;1.40;;
57023;SDS011;42916;54.346;18.562;2023-02-20T03:09:22;4.80;;;1.20;;
57023;SDS011;42916;54.346;18.562;2023-02-20T03:11:54;7.10;;;1.60;;
57023;SDS011;42916;54.346;18.562;2023-02-20T03:14:25;4.70;;;1.40;;
57023;SDS011;42916;54.346;18.562;2023-02-20T03:23:13;5.10;;;1.40;;
57023;SDS011;42916;54.346;18.562;2023-02-20T03:25:47;7.00;;;1.60;;
57023;SDS011;42916;54.346;18.562;2023-02-20T03:28:27;3.00;;;1.40;;
57023;SDS011;42916;54.346;18.562;2023-02-20T03:31:09;3.60;;;1.10;;
57023;SDS011;42916;54.346;18.562;2023-02-20T03:33:43;5.70;;;1.10;;
57023;SDS011;42916;54.346;18.562;2023-02-20T03:36:45;3.00;;;1.30;;
57023;SDS011;42916;54.346;18.562;2023-02-20T03:39:38;3.00;;;1.30;;
57023;SDS011;42916;54.346;18.562;2023-02-20T03:42:30;4.60;;;1.20;;
57023;SDS011;42916;54.346;18.562;2023-02-20T03:45:25;1.90;;;1.00;;
57023;SDS011;42916;54.346;18.562;2023-02-20T03:47:58;6.00;;;1.40;;
57023;SDS011;42916;54.346;18.562;2023-02-20T03:50:30;5.10;;;1.30;;
57023;SDS011;42916;54.346;18.562;2023-02-20T03:53:16;9.90;;;1.60;;
57023;SDS011;42916;54.346;18.562;2023-02-20T03:55:44;4.30;;;1.30;;
57023;SDS011;42916;54.346;18.562;2023-02-20T03:58:12;2.90;;;1.40;;
57023;SDS011;42916;54.346;18.562;2023-02-20T04:00:50;3.80;;;1.40;;
57023;SDS011;42916;54.346;18.562;2023-02-20T04:03:25;2.90;;;1.00;;
57023;SDS011;42916;54.346;18.562;2023-02-20T04:05:56;2.60;;;1.10;;
57023;SDS011;42916;54.346;18.562;2023-02-20T04:08:37;6.30;;;1.30;;
57023;SDS011;42916;54.346;18.562;2023-02-20T04:11:19;4.20;;;1.80;;
57023;SDS011;42916;54.346;18.562;2023-02-20T04:13:50;4.60;;;1.40;;
57023;SDS011;42916;54.346;18.562;2023-02-20T04:16:20;6.20;;;1.50;;
57023;SDS011;42916;54.346;18.562;2023-02-20T04:18:48;3.70;;;1.50;;
57023;SDS011;42916;54.346;18.562;2023-02-20T04:21:20;2.50;;;1.40;;
57023;SDS011;42916;54.346;18.562;2023-02-20T04:23:57;3.40;;;1.40;;
57023;SDS011;42916;54.346;18.562;2023-02-20T04:26:31;5.10;;;1.70;;
57023;SDS011;42916;54.346;18.562;2023-02-20T04:29:00;2.50;;;1.30;;
57023;SDS011;42916;54.346;18.562;2023-02-20T04:31:27;3.30;;;1.60;;
57023;SDS011;42916;54.346;18.562;2023-02-20T04:33:54;4.20;;;1.60;;
57023;SDS011;42916;54.346;18.562;2023-02-20T04:36:23;5.40;;;2.00;;
57023;SDS011;42916;54.346;18.562;2023-02-20T04:38:52;6.20;;;1.90;;
57023;SDS011;42916;54.346;18.562;2023-02-20T04:41:22;3.80;;;1.80;;
57023;SDS011;42916;54.346;18.562;2023-02-20T04:43:49;7.70;;;2.90;;
57023;SDS011;42916;54.346;18.562;2023-02-20T04:46:36;9.50;;;2.20;;
57023;SDS011;42916;54.346;18.562;2023-02-20T04:49:03;7.30;;;2.20;;
57023;SDS011;42916;54.346;18.562;2023-02-20T04:51:30;6.20;;;2.40;;
57023;SDS011;42916;54.346;18.562;2023-02-20T04:53:57;5.20;;;2.00;;
57023;SDS011;42916;54.346;18.562;2023-02-20T04:56:24;7.30;;;3.00;;
57023;SDS011;42916;54.346;18.562;2023-02-20T04:58:52;5.60;;;2.50;;
57023;SDS011;42916;54.346;18.562;2023-02-20T05:01:20;7.50;;;2.40;;
57023;SDS011;42916;54.346;18.562;2023-02-20T05:03:47;7.00;;;2.40;;
57023;SDS011;42916;54.346;18.562;2023-02-20T05:06:14;6.70;;;2.40;;
57023;SDS011;42916;54.346;18.562;2023-02-20T05:08:41;9.30;;;2.70;;
57023;SDS011;42916;54.346;18.562;2023-02-20T05:11:07;10.20;;;3.40;;
57023;SDS011;42916;54.346;18.562;2023-02-20T05:13:34;5.50;;;2.90;;
57023;SDS011;42916;54.346;18.562;2023-02-20T05:16:01;6.50;;;2.30;;
57023;SDS011;42916;54.346;18.562;2023-02-20T05:18:28;4.40;;;2.40;;
57023;SDS011;42916;54.346;18.562;2023-02-20T05:20:56;7.20;;;3.00;;
57023;SDS011;42916;54.346;18.562;2023-02-20T05:23:44;8.50;;;3.10;;
57023;SDS011;42916;54.346;18.562;2023-02-20T05:28:42;9.60;;;2.80;;
57023;SDS011;42916;54.346;18.562;2023-02-20T05:31:10;5.00;;;2.70;;
57023;SDS011;42916;54.346;18.562;2023-02-20T05:33:37;4.60;;;2.20;;
57023;SDS011;42916;54.346;18.562;2023-02-20T05:36:04;5.70;;;2.50;;
57023;SDS011;42916;54.346;18.562;2023-02-20T05:38:31;7.00;;;2.30;;
57023;SDS011;42916;54.346;18.562;2023-02-20T05:40:58;4.30;;;2.20;;
57023;SDS011;42916;54.346;18.562;2023-02-20T05:43:25;7.60;;;2.40;;
57023;SDS011;42916;54.346;18.562;2023-02-20T05:45:51;4.40;;;1.70;;
57023;SDS011;42916;54.346;18.562;2023-02-20T05:48:18;4.50;;;1.90;;
57023;SDS011;42916;54.346;18.562;2023-02-20T05:50:45;3.20;;;1.90;;
57023;SDS011;42916;54.346;18.562;2023-02-20T05:53:16;4.90;;;2.70;;
57023;SDS011;42916;54.346;18.562;2023-02-20T05:55:43;4.20;;;2.20;;
57023;SDS011;42916;54.346;18.562;2023-02-20T05:58:10;2.90;;;1.60;;
57023;SDS011;42916;54.346;18.562;2023-02-20T06:00:37;3.70;;;1.80;;
57023;SDS011;42916;54.346;18.562;2023-02-20T06:03:07;5.20;;;1.60;;
57023;SDS011;42916;54.346;18.562;2023-02-20T06:05:35;2.50;;;1.40;;
57023;SDS011;42916;54.346;18.562;2023-02-20T06:08:02;1.80;;;1.50;;
57023;SDS011;42916;54.346;18.562;2023-02-20T06:10:30;3.20;;;1.40;;
57023;SDS011;42916;54.346;18.562;2023-02-20T06:12:57;2.80;;;1.80;;
57023;SDS011;42916;54.346;18.562;2023-02-20T06:15:24;3.20;;;1.70;;
57023;SDS011;42916;54.346;18.562;2023-02-20T06:17:51;4.90;;;1.90;;
57023;SDS011;42916;54.346;18.562;2023-02-20T06:20:18;3.00;;;2.00;;
57023;SDS011;42916;54.346;18.562;2023-02-20T06:22:47;6.70;;;2.30;;
57023;SDS011;42916;54.346;18.562;2023-02-20T06:25:14;3.40;;;2.20;;
57023;SDS011;42916;54.346;18.562;2023-02-20T06:27:41;4.00;;;2.00;;
57023;SDS011;42916;54.346;18.562;2023-02-20T06:30:08;6.30;;;2.50;;
57023;SDS011;42916;54.346;18.562;2023-02-20T06:32:35;3.80;;;2.10;;
57023;SDS011;42916;54.346;18.562;2023-02-20T06:35:03;3.30;;;2.10;;
57023;SDS011;42916;54.346;18.562;2023-02-20T06:37:31;3.00;;;2.00;;
57023;SDS011;42916;54.346;18.562;2023-02-20T06:39:58;3.30;;;1.80;;
57023;SDS011;42916;54.346;18.562;2023-02-20T06:42:25;4.70;;;2.10;;
57023;SDS011;42916;54.346;18.562;2023-02-20T06:44:52;2.00;;;1.80;;
57023;SDS011;42916;54.346;18.562;2023-02-20T06:47:19;2.60;;;2.20;;
57023;SDS011;42916;54.346;18.562;2023-02-20T06:49:45;3.30;;;2.30;;
57023;SDS011;42916;54.346;18.562;2023-02-20T06:52:13;2.40;;;1.60;;
57023;SDS011;42916;54.346;18.562;2023-02-20T06:54:40;2.70;;;1.60;;
57023;SDS011;42916;54.346;18.562;2023-02-20T06:57:06;2.60;;;1.70;;
57023;SDS011;42916;54.346;18.562;2023-02-20T06:59:33;2.70;;;1.70;;
57023;SDS011;42916;54.346;18.562;2023-02-20T07:02:10;3.40;;;1.70;;
57023;SDS011;42916;54.346;18.562;2023-02-20T07:04:37;2.40;;;1.70;;
57023;SDS011;42916;54.346;18.562;2023-02-20T07:07:04;1.90;;;1.70;;
57023;SDS011;42916;54.346;18.562;2023-02-20T07:09:31;3.20;;;1.90;;
57023;SDS011;42916;54.346;18.562;2023-02-20T07:11:58;2.50;;;1.60;;
57023;SDS011;42916;54.346;18.562;2023-02-20T07:14:25;2.40;;;1.70;;
57023;SDS011;42916;54.346;18.562;2023-02-20T07:16:52;1.80;;;1.60;;
57023;SDS011;42916;54.346;18.562;2023-02-20T07:19:18;2.60;;;1.70;;
57023;SDS011;42916;54.346;18.562;2023-02-20T07:21:45;2.10;;;1.60;;
57023;SDS011;42916;54.346;18.562;2023-02-20T07:24:13;2.30;;;1.90;;
57023;SDS011;42916;54.346;18.562;2023-02-20T07:26:40;2.10;;;1.60;;
57023;SDS011;42916;54.346;18.562;2023-02-20T07:29:07;1.60;;;1.40;;
57023;SDS011;42916;54.346;18.562;2023-02-20T07:31:34;2.20;;;1.70;;
57023;SDS011;42916;54.346;18.562;2023-02-20T07:34:01;2.60;;;1.80;;
57023;SDS011;42916;54.346;18.562;2023-02-20T07:36:34;5.10;;;2.20;;
57023;SDS011;42916;54.346;18.562;2023-02-20T07:39:02;3.70;;;1.90;;
57023;SDS011;42916;54.346;18.562;2023-02-20T07:41:29;5.80;;;2.20;;
57023;SDS011;42916;54.346;18.562;2023-02-20T07:44:04;3.30;;;1.90;;
57023;SDS011;42916;54.346;18.562;2023-02-20T07:46:32;2.10;;;1.40;;
57023;SDS011;42916;54.346;18.562;2023-02-20T07:49:02;2.10;;;1.20;;
57023;SDS011;42916;54.346;18.562;2023-02-20T07:51:31;2.80;;;1.40;;
57023;SDS011;42916;54.346;18.562;2023-02-20T07:53:58;2.00;;;1.40;;
57023;SDS011;42916;54.346;18.562;2023-02-20T07:56:25;1.80;;;1.10;;
57023;SDS011;42916;54.346;18.562;2023-02-20T07:58:52;2.40;;;1.10;;
57023;SDS011;42916;54.346;18.562;2023-02-20T08:01:19;1.50;;;1.40;;
57023;SDS011;42916;54.346;18.562;2023-02-20T08:03:46;2.20;;;1.40;;
57023;SDS011;42916;54.346;18.562;2023-02-20T08:06:15;1.40;;;0.90;;
57023;SDS011;42916;54.346;18.562;2023-02-20T08:08:50;1.50;;;1.30;;
57023;SDS011;42916;54.346;18.562;2023-02-20T08:11:17;3.00;;;1.10;;
57023;SDS011;42916;54.346;18.562;2023-02-20T08:13:45;1.60;;;1.20;;
57023;SDS011;42916;54.346;18.562;2023-02-20T08:16:12;3.80;;;1.60;;
57023;SDS011;42916;54.346;18.562;2023-02-20T08:18:39;3.10;;;1.70;;
57023;SDS011;42916;54.346;18.562;2023-02-20T08:21:05;3.30;;;1.50;;
57023;SDS011;42916;54.346;18.562;2023-02-20T08:23:32;1.70;;;1.20;;
57023;SDS011;42916;54.346;18.562;2023-02-20T08:25:59;3.20;;;1.40;;
57023;SDS011;42916;54.346;18.562;2023-02-20T08:28:28;1.60;;;1.20;;
57023;SDS011;42916;54.346;18.562;2023-02-20T08:30:55;1.90;;;1.60;;
57023;SDS011;42916;54.346;18.562;2023-02-20T08:33:21;1.70;;;1.40;;
57023;SDS011;42916;54.346;18.562;2023-02-20T08:35:48;2.90;;;1.70;;
57023;SDS011;42916;54.346;18.562;2023-02-20T08:41:03;3.40;;;1.90;;
57023;SDS011;42916;54.346;18.562;2023-02-20T08:43:33;3.00;;;1.70;;
57023;SDS011;42916;54.346;18.562;2023-02-20T08:46:01;3.80;;;1.80;;
57023;SDS011;42916;54.346;18.562;2023-02-20T08:48:29;4.50;;;2.20;;
57023;SDS011;42916;54.346;18.562;2023-02-20T08:50:56;5.40;;;1.90;;
57023;SDS011;42916;54.346;18.562;2023-02-20T08:53:22;3.20;;;1.70;;
57023;SDS011;42916;54.346;18.562;2023-02-20T08:55:49;2.30;;;1.30;;
57023;SDS011;42916;54.346;18.562;2023-02-20T08:58:20;1.60;;;1.10;;
57023;SDS011;42916;54.346;18.562;2023-02-20T09:00:48;2.10;;;1.50;;
57023;SDS011;42916;54.346;18.562;2023-02-20T09:03:15;2.20;;;1.80;;
57023;SDS011;42916;54.346;18.562;2023-02-20T09:05:43;2.70;;;1.80;;
57023;SDS011;42916;54.346;18.562;2023-02-20T09:08:10;3.30;;;1.80;;
57023;SDS011;42916;54.346;18.562;2023-02-20T09:10:36;2.70;;;1.90;;
57023;SDS011;42916;54.346;18.562;2023-02-20T09:13:03;2.80;;;1.90;;
57023;SDS011;42916;54.346;18.562;2023-02-20T09:15:30;3.50;;;1.80;;
57023;SDS011;42916;54.346;18.562;2023-02-20T09:18:01;2.30;;;1.70;;
57023;SDS011;42916;54.346;18.562;2023-02-20T09:20:28;2.40;;;1.70;;
57023;SDS011;42916;54.346;18.562;2023-02-20T09:22:56;4.40;;;2.20;;
57023;SDS011;42916;54.346;18.562;2023-02-20T09:25:24;4.20;;;2.30;;
57023;SDS011;42916;54.346;18.562;2023-02-20T09:27:51;3.30;;;2.40;;
57023;SDS011;42916;54.346;18.562;2023-02-20T09:30:18;6.00;;;2.20;;
57023;SDS011;42916;54.346;18.562;2023-02-20T09:32:47;4.60;;;2.40;;
57023;SDS011;42916;54.346;18.562;2023-02-20T09:35:16;5.40;;;2.70;;
57023;SDS011;42916;54.346;18.562;2023-02-20T09:37:46;4.50;;;2.50;;
57023;SDS011;42916;54.346;18.562;2023-02-20T09:40:13;4.50;;;2.70;;
57023;SDS011;42916;54.346;18.562;2023-02-20T09:42:45;4.50;;;2.70;;
57023;SDS011;42916;54.346;18.562;2023-02-20T09:45:26;3.40;;;2.10;;
57023;SDS011;42916;54.346;18.562;2023-02-20T09:53:38;5.10;;;3.40;;
57023;SDS011;42916;54.346;18.562;2023-02-20T09:56:10;6.80;;;3.50;;
57023;SDS011;42916;54.346;18.562;2023-02-20T09:59:01;5.00;;;3.00;;
57023;SDS011;42916;54.346;18.562;2023-02-20T10:04:30;5.10;;;3.80;;
57023;SDS011;42916;54.346;18.562;2023-02-20T10:07:11;6.30;;;4.00;;
57023;SDS011;42916;54.346;18.562;2023-02-20T10:09:49;8.40;;;4.00;;
57023;SDS011;42916;54.346;18.562;2023-02-20T10:14:55;6.00;;;3.80;;
57023;SDS011;42916;54.346;18.562;2023-02-20T10:17:35;8.50;;;4.70;;
57023;SDS011;42916;54.346;18.562;2023-02-20T10:20:32;8.20;;;4.70;;
57023;SDS011;42916;54.346;18.562;2023-02-20T10:25:57;8.10;;;4.80;;
57023;SDS011;42916;54.346;18.562;2023-02-20T10:28:28;8.50;;;4.90;;
57023;SDS011;42916;54.346;18.562;2023-02-20T10:34:40;12.50;;;6.00;;
57023;SDS011;42916;54.346;18.562;2023-02-20T10:37:03;12.40;;;7.20;;
57023;SDS011;42916;54.346;18.562;2023-02-20T10:39:44;11.80;;;5.60;;
57023;SDS011;42916;54.346;18.562;2023-02-20T10:42:28;9.60;;;6.10;;
57023;SDS011;42916;54.346;18.562;2023-02-20T10:47:30;9.20;;;5.10;;
57023;SDS011;42916;54.346;18.562;2023-02-20T10:52:29;6.40;;;4.50;;
57023;SDS011;42916;54.346;18.562;2023-02-20T10:55:06;6.70;;;5.10;;
57023;SDS011;42916;54.346;18.562;2023-02-20T10:57:37;8.50;;;4.50;;
57023;SDS011;42916;54.346;18.562;2023-02-20T11:00:19;8.60;;;5.20;;
57023;SDS011;42916;54.346;18.562;2023-02-20T11:02:52;9.00;;;5.50;;
57023;SDS011;42916;54.346;18.562;2023-02-20T11:05:26;8.10;;;4.50;;
57023;SDS011;42916;54.346;18.562;2023-02-20T11:07:56;8.30;;;4.40;;
57023;SDS011;42916;54.346;18.562;2023-02-20T11:10:23;8.40;;;4.80;;
57023;SDS011;42916;54.346;18.562;2023-02-20T11:12:51;8.80;;;4.50;;
57023;SDS011;42916;54.346;18.562;2023-02-20T11:15:27;6.10;;;4.50;;
57023;SDS011;42916;54.346;18.562;2023-02-20T11:17:56;8.10;;;4.40;;
57023;SDS011;42916;54.346;18.562;2023-02-20T11:20:43;6.10;;;4.00;;
57023;SDS011;42916;54.346;18.562;2023-02-20T11:28:59;5.40;;;3.70;;
57023;SDS011;42916;54.346;18.562;2023-02-20T11:31:27;6.10;;;3.80;;
57023;SDS011;42916;54.346;18.562;2023-02-20T11:33:58;6.40;;;3.60;;
57023;SDS011;42916;54.346;18.562;2023-02-20T11:36:33;8.00;;;4.30;;
57023;SDS011;42916;54.346;18.562;2023-02-20T11:39:20;8.40;;;4.60;;
57023;SDS011;42916;54.346;18.562;2023-02-20T11:41:52;12.10;;;5.20;;
57023;SDS011;42916;54.346;18.562;2023-02-20T11:44:31;7.80;;;4.30;;
57023;SDS011;42916;54.346;18.562;2023-02-20T11:53:04;14.10;;;5.40;;
57023;SDS011;42916;54.346;18.562;2023-02-20T11:55:33;9.30;;;5.30;;
57023;SDS011;42916;54.346;18.562;2023-02-20T11:58:01;15.10;;;5.50;;
57023;SDS011;42916;54.346;18.562;2023-02-20T12:00:29;8.30;;;4.80;;
57023;SDS011;42916;54.346;18.562;2023-02-20T12:03:21;8.80;;;4.90;;
57023;SDS011;42916;54.346;18.562;2023-02-20T12:05:50;11.20;;;5.50;;
57023;SDS011;42916;54.346;18.562;2023-02-20T12:08:35;10.90;;;5.50;;
57023;SDS011;42916;54.346;18.562;2023-02-20T12:11:16;13.60;;;5.90;;
57023;SDS011;42916;54.346;18.562;2023-02-20T12:13:48;12.00;;;5.10;;
57023;SDS011;42916;54.346;18.562;2023-02-20T12:21:53;11.10;;;4.30;;
57023;SDS011;42916;54.346;18.562;2023-02-20T12:30:18;10.30;;;5.70;;
57023;SDS011;42916;54.346;18.562;2023-02-20T12:32:51;8.20;;;4.60;;
57023;SDS011;42916;54.346;18.562;2023-02-20T12:35:31;11.90;;;4.70;;
57023;SDS011;42916;54.346;18.562;2023-02-20T12:46:24;7.50;;;4.00;;
57023;SDS011;42916;54.346;18.562;2023-02-20T12:52:03;6.50;;;3.50;;
57023;SDS011;42916;54.346;18.562;2023-02-20T12:57:35;6.10;;;3.30;;
57023;SDS011;42916;54.346;18.562;2023-02-20T13:00:28;5.60;;;3.50;;
57023;SDS011;42916;54.346;18.562;2023-02-20T13:03:01;6.90;;;3.20;;
57023;SDS011;42916;54.346;18.562;2023-02-20T13:05:36;5.70;;;2.90;;
57023;SDS011;42916;54.346;18.562;2023-02-20T13:08:22;6.90;;;3.20;;
57023;SDS011;42916;54.346;18.562;2023-02-20T13:10:58;4.20;;;2.80;;
57023;SDS011;42916;54.346;18.562;2023-02-20T13:13:40;7.70;;;3.20;;
57023;SDS011;42916;54.346;18.562;2023-02-20T13:16:25;3.40;;;2.80;;
57023;SDS011;42916;54.346;18.562;2023-02-20T13:19:05;3.50;;;2.40;;
57023;SDS011;42916;54.346;18.562;2023-02-20T13:21:45;6.60;;;3.20;;
57023;SDS011;42916;54.346;18.562;2023-02-20T13:26:46;6.20;;;2.90;;
57023;SDS011;42916;54.346;18.562;2023-02-20T13:29:22;6.00;;;3.00;;
57023;SDS011;42916;54.346;18.562;2023-02-20T13:31:57;5.30;;;2.90;;
57023;SDS011;42916;54.346;18.562;2023-02-20T13:34:44;5.50;;;3.10;;
57023;SDS011;42916;54.346;18.562;2023-02-20T13:43:28;5.10;;;2.70;;
57023;SDS011;42916;54.346;18.562;2023-02-20T13:48:47;5.50;;;2.40;;
57023;SDS011;42916;54.346;18.562;2023-02-20T13:53:53;4.20;;;2.40;;
57023;SDS011;42916;54.346;18.562;2023-02-20T13:56:23;5.80;;;2.30;;
57023;SDS011;42916;54.346;18.562;2023-02-20T13:58:55;3.00;;;2.10;;
57023;SDS011;42916;54.346;18.562;2023-02-20T14:01:24;5.80;;;2.10;;
57023;SDS011;42916;54.346;18.562;2023-02-20T14:04:00;3.20;;;1.80;;
57023;SDS011;42916;54.346;18.562;2023-02-20T14:06:29;5.80;;;1.90;;
57023;SDS011;42916;54.346;18.562;2023-02-20T14:09:07;2.90;;;1.50;;
57023;SDS011;42916;54.346;18.562;2023-02-20T14:11:41;3.50;;;2.00;;
57023;SDS011;42916;54.346;18.562;2023-02-20T14:14:09;3.50;;;1.70;;
57023;SDS011;42916;54.346;18.562;2023-02-20T14:16:47;4.00;;;1.90;;
57023;SDS011;42916;54.346;18.562;2023-02-20T14:19:17;4.10;;;1.90;;
57023;SDS011;42916;54.346;18.562;2023-02-20T14:21:49;2.20;;;1.50;;
57023;SDS011;42916;54.346;18.562;2023-02-20T14:26:44;3.20;;;1.50;;
57023;SDS011;42916;54.346;18.562;2023-02-20T14:29:19;2.80;;;1.50;;
57023;SDS011;42916;54.346;18.562;2023-02-20T14:31:49;1.90;;;1.30;;
57023;SDS011;42916;54.346;18.562;2023-02-20T14:34:23;2.50;;;1.40;;
57023;SDS011;42916;54.346;18.562;2023-02-20T14:37:11;2.90;;;1.20;;
57023;SDS011;42916;54.346;18.562;2023-02-20T14:42:12;4.60;;;1.20;;
57023;SDS011;42916;54.346;18.562;2023-02-20T14:44:41;3.50;;;1.30;;
57023;SDS011;42916;54.346;18.562;2023-02-20T14:47:10;1.90;;;1.30;;
57023;SDS011;42916;54.346;18.562;2023-02-20T14:49:39;2.20;;;1.30;;
57023;SDS011;42916;54.346;18.562;2023-02-20T14:54:37;1.60;;;1.10;;
57023;SDS011;42916;54.346;18.562;2023-02-20T14:57:07;2.90;;;1.40;;
57023;SDS011;42916;54.346;18.562;2023-02-20T14:59:38;2.60;;;1.50;;
57023;SDS011;42916;54.346;18.562;2023-02-20T15:07:38;2.30;;;1.20;;
57023;SDS011;42916;54.346;18.562;2023-02-20T15:10:22;1.60;;;1.10;;
57023;SDS011;42916;54.346;18.562;2023-02-20T15:15:35;1.70;;;0.90;;
57023;SDS011;42916;54.346;18.562;2023-02-20T15:18:07;4.40;;;1.30;;
57023;SDS011;42916;54.346;18.562;2023-02-20T15:20:44;2.90;;;1.10;;
57023;SDS011;42916;54.346;18.562;2023-02-20T15:25:43;2.50;;;1.00;;
57023;SDS011;42916;54.346;18.562;2023-02-20T15:33:33;1.70;;;1.00;;
57023;SDS011;42916;54.346;18.562;2023-02-20T15:36:08;2.40;;;1.30;;
57023;SDS011;42916;54.346;18.562;2023-02-20T15:38:38;2.70;;;1.40;;
57023;SDS011;42916;54.346;18.562;2023-02-20T15:41:06;4.00;;;1.30;;
57023;SDS011;42916;54.346;18.562;2023-02-20T15:43:33;1.90;;;1.20;;
57023;SDS011;42916;54.346;18.562;2023-02-20T15:46:00;2.40;;;1.60;;
57023;SDS011;42916;54.346;18.562;2023-02-20T15:48:26;2.20;;;1.20;;
57023;SDS011;42916;54.346;18.562;2023-02-20T15:50:54;2.70;;;1.20;;
57023;SDS011;42916;54.346;18.562;2023-02-20T15:53:28;2.10;;;1.30;;
57023;SDS011;42916;54.346;18.562;2023-02-20T15:55:58;1.40;;;1.00;;
57023;SDS011;42916;54.346;18.562;2023-02-20T15:58:27;1.60;;;1.20;;
57023;SDS011;42916;54.346;18.562;2023-02-20T16:00:56;3.00;;;1.50;;
57023;SDS011;42916;54.346;18.562;2023-02-20T16:03:24;4.00;;;1.40;;
57023;SDS011;42916;54.346;18.562;2023-02-20T16:05:53;3.00;;;1.30;;
57023;SDS011;42916;54.346;18.562;2023-02-20T16:08:21;3.80;;;1.50;;
57023;SDS011;42916;54.346;18.562;2023-02-20T16:10:49;2.00;;;1.50;;
57023;SDS011;42916;54.346;18.562;2023-02-20T16:15:52;2.40;;;1.30;;
57023;SDS011;42916;54.346;18.562;2023-02-20T16:18:19;3.40;;;1.60;;
57023;SDS011;42916;54.346;18.562;2023-02-20T16:20:47;2.50;;;1.40;;
57023;SDS011;42916;54.346;18.562;2023-02-20T16:23:14;6.00;;;1.30;;
57023;SDS011;42916;54.346;18.562;2023-02-20T16:25:41;2.20;;;1.20;;
57023;SDS011;42916;54.346;18.562;2023-02-20T16:28:09;2.80;;;1.30;;
57023;SDS011;42916;54.346;18.562;2023-02-20T16:30:37;2.90;;;1.40;;
57023;SDS011;42916;54.346;18.562;2023-02-20T16:33:11;3.00;;;1.80;;
57023;SDS011;42916;54.346;18.562;2023-02-20T16:35:39;2.90;;;1.60;;
57023;SDS011;42916;54.346;18.562;2023-02-20T16:38:06;3.00;;;1.20;;
57023;SDS011;42916;54.346;18.562;2023-02-20T16:40:33;5.20;;;1.60;;
57023;SDS011;42916;54.346;18.562;2023-02-20T16:43:00;5.50;;;1.70;;
57023;SDS011;42916;54.346;18.562;2023-02-20T16:45:27;7.20;;;1.70;;
57023;SDS011;42916;54.346;18.562;2023-02-20T16:47:54;5.50;;;1.50;;
57023;SDS011;42916;54.346;18.562;2023-02-20T16:50:23;7.40;;;1.60;;
57023;SDS011;42916;54.346;18.562;2023-02-20T16:52:57;6.40;;;1.60;;
57023;SDS011;42916;54.346;18.562;2023-02-20T16:55:35;7.40;;;2.40;;
57023;SDS011;42916;54.346;18.562;2023-02-20T16:58:02;4.80;;;2.20;;
57023;SDS011;42916;54.346;18.562;2023-02-20T17:00:31;6.60;;;1.70;;
57023;SDS011;42916;54.346;18.562;2023-02-20T17:05:28;7.70;;;1.60;;
57023;SDS011;42916;54.346;18.562;2023-02-20T17:07:57;6.80;;;1.50;;
57023;SDS011;42916;54.346;18.562;2023-02-20T17:10:25;5.70;;;1.70;;
57023;SDS011;42916;54.346;18.562;2023-02-20T17:12:53;6.20;;;1.70;;
57023;SDS011;42916;54.346;18.562;2023-02-20T17:15:22;6.00;;;1.70;;
57023;SDS011;42916;54.346;18.562;2023-02-20T17:17:50;6.10;;;2.10;;